Patton, Pennsylvania
Current Conditions -  °F | °C
As of 11:15 AM on Sunday 25 Jan 2015 (Local Time) from KIDI Reporting Station
Moderate Fog Moderate Fog  
Wind Chill: 29°   Ceiling: 300
Heat Index: 34°   Visibility: 0.5mi
Dew Point: 34°   Wind: 6mph
Humidity: 100%   Direction: 240°WSW
Pressure: 29.83"   Gusts: NA
Location:  40.63°N, 78.65°W
Report Text: KIDI 251615Z AUTO 24005KT 1/2SM FG OVC003 01/01 A2983 RMK A01
Loading
Personal Weather Stations






























Interactive Weather Map New forecast layout! Learn more

10-Day Weather Forecast

Advertisements
Track Severe Weather on mobile